sensor_id;sensor_type;location;lat;lon;timestamp;temperature;humidity
11894;DHT22;6006;49.696;8.662;2023-06-14T00:00:02;16.70;99.90
11894;DHT22;6006;49.696;8.662;2023-06-14T00:02:30;16.80;99.90
11894;DHT22;6006;49.696;8.662;2023-06-14T00:04:57;16.80;99.90
11894;DHT22;6006;49.696;8.662;2023-06-14T00:07:34;16.90;99.90
11894;DHT22;6006;49.696;8.662;2023-06-14T00:10:03;17.00;99.90
11894;DHT22;6006;49.696;8.662;2023-06-14T00:12:30;17.00;99.90
11894;DHT22;6006;49.696;8.662;2023-06-14T00:14:57;17.00;99.90
11894;DHT22;6006;49.696;8.662;2023-06-14T00:17:24;17.00;99.90
11894;DHT22;6006;49.696;8.662;2023-06-14T00:19:55;17.00;99.90
11894;DHT22;6006;49.696;8.662;2023-06-14T00:22:23;17.10;99.90
11894;DHT22;6006;49.696;8.662;2023-06-14T00:24:51;17.20;99.90
11894;DHT22;6006;49.696;8.662;2023-06-14T00:27:19;17.30;99.90
11894;DHT22;6006;49.696;8.662;2023-06-14T00:29:46;17.30;99.90
11894;DHT22;6006;49.696;8.662;2023-06-14T00:32:13;17.30;99.90
11894;DHT22;6006;49.696;8.662;2023-06-14T00:34:40;17.30;99.90
11894;DHT22;6006;49.696;8.662;2023-06-14T00:37:06;17.30;99.90
11894;DHT22;6006;49.696;8.662;2023-06-14T00:39:34;17.30;99.90
11894;DHT22;6006;49.696;8.662;2023-06-14T00:42:00;17.40;99.90
11894;DHT22;6006;49.696;8.662;2023-06-14T00:44:29;17.40;99.90
11894;DHT22;6006;49.696;8.662;2023-06-14T00:46:55;17.40;99.90
11894;DHT22;6006;49.696;8.662;2023-06-14T00:49:23;17.50;99.90
11894;DHT22;6006;49.696;8.662;2023-06-14T00:51:50;17.50;99.90
11894;DHT22;6006;49.696;8.662;2023-06-14T00:54:17;17.60;99.90
11894;DHT22;6006;49.696;8.662;2023-06-14T00:56:44;17.60;99.90
11894;DHT22;6006;49.696;8.662;2023-06-14T00:59:11;17.60;99.90
11894;DHT22;6006;49.696;8.662;2023-06-14T01:01:40;17.60;99.90
11894;DHT22;6006;49.696;8.662;2023-06-14T01:04:06;17.50;99.90
11894;DHT22;6006;49.696;8.662;2023-06-14T01:06:37;17.50;99.90
11894;DHT22;6006;49.696;8.662;2023-06-14T01:09:15;17.60;99.90
11894;DHT22;6006;49.696;8.662;2023-06-14T01:11:50;17.60;99.90
11894;DHT22;6006;49.696;8.662;2023-06-14T01:14:18;17.50;99.90
11894;DHT22;6006;49.696;8.662;2023-06-14T01:16:47;17.60;99.90
11894;DHT22;6006;49.696;8.662;2023-06-14T01:19:19;17.60;99.90
11894;DHT22;6006;49.696;8.662;2023-06-14T01:21:48;17.60;99.90
11894;DHT22;6006;49.696;8.662;2023-06-14T01:24:18;17.50;99.90
11894;DHT22;6006;49.696;8.662;2023-06-14T01:26:49;17.50;99.90
11894;DHT22;6006;49.696;8.662;2023-06-14T01:29:17;17.50;99.90
11894;DHT22;6006;49.696;8.662;2023-06-14T01:31:45;17.50;99.90
11894;DHT22;6006;49.696;8.662;2023-06-14T01:34:13;17.50;99.90
11894;DHT22;6006;49.696;8.662;2023-06-14T01:36:42;17.50;99.90
11894;DHT22;6006;49.696;8.662;2023-06-14T01:39:11;17.50;99.90
11894;DHT22;6006;49.696;8.662;2023-06-14T01:41:40;17.50;99.90
11894;DHT22;6006;49.696;8.662;2023-06-14T01:44:07;17.50;99.90
11894;DHT22;6006;49.696;8.662;2023-06-14T01:46:35;17.40;99.90
11894;DHT22;6006;49.696;8.662;2023-06-14T01:49:02;17.40;99.90
11894;DHT22;6006;49.696;8.662;2023-06-14T01:51:29;17.40;99.90
11894;DHT22;6006;49.696;8.662;2023-06-14T01:53:56;17.40;99.90
11894;DHT22;6006;49.696;8.662;2023-06-14T01:56:23;17.30;99.90
11894;DHT22;6006;49.696;8.662;2023-06-14T01:58:53;17.30;99.90
11894;DHT22;6006;49.696;8.662;2023-06-14T02:01:21;17.30;99.90
11894;DHT22;6006;49.696;8.662;2023-06-14T02:03:48;17.30;99.90
11894;DHT22;6006;49.696;8.662;2023-06-14T02:06:16;17.30;99.90
11894;DHT22;6006;49.696;8.662;2023-06-14T02:08:43;17.30;99.90
11894;DHT22;6006;49.696;8.662;2023-06-14T02:11:10;17.20;99.90
11894;DHT22;6006;49.696;8.662;2023-06-14T02:13:37;17.20;99.90
11894;DHT22;6006;49.696;8.662;2023-06-14T02:16:05;17.20;99.90
11894;DHT22;6006;49.696;8.662;2023-06-14T02:18:32;17.10;99.90
11894;DHT22;6006;49.696;8.662;2023-06-14T02:20:59;17.10;99.90
11894;DHT22;6006;49.696;8.662;2023-06-14T02:23:26;17.00;99.90
11894;DHT22;6006;49.696;8.662;2023-06-14T02:25:53;17.00;99.90
11894;DHT22;6006;49.696;8.662;2023-06-14T02:28:20;16.90;99.90
11894;DHT22;6006;49.696;8.662;2023-06-14T02:30:47;16.90;99.90
11894;DHT22;6006;49.696;8.662;2023-06-14T02:33:15;16.80;99.90
11894;DHT22;6006;49.696;8.662;2023-06-14T02:35:43;16.80;99.90
11894;DHT22;6006;49.696;8.662;2023-06-14T02:38:10;16.80;99.90
11894;DHT22;6006;49.696;8.662;2023-06-14T02:40:37;16.70;99.90
11894;DHT22;6006;49.696;8.662;2023-06-14T02:43:04;16.70;99.90
11894;DHT22;6006;49.696;8.662;2023-06-14T02:45:31;16.70;99.90
11894;DHT22;6006;49.696;8.662;2023-06-14T02:47:57;16.60;99.90
11894;DHT22;6006;49.696;8.662;2023-06-14T02:50:26;16.60;99.90
11894;DHT22;6006;49.696;8.662;2023-06-14T02:52:53;16.60;99.90
11894;DHT22;6006;49.696;8.662;2023-06-14T02:55:22;16.60;99.90
11894;DHT22;6006;49.696;8.662;2023-06-14T02:57:49;16.60;99.90
11894;DHT22;6006;49.696;8.662;2023-06-14T03:00:18;16.50;99.90
11894;DHT22;6006;49.696;8.662;2023-06-14T03:02:45;16.50;99.90
11894;DHT22;6006;49.696;8.662;2023-06-14T03:05:12;16.50;99.90
11894;DHT22;6006;49.696;8.662;2023-06-14T03:07:41;16.50;99.90
11894;DHT22;6006;49.696;8.662;2023-06-14T03:10:11;16.50;99.90
11894;DHT22;6006;49.696;8.662;2023-06-14T03:12:38;16.50;99.90
11894;DHT22;6006;49.696;8.662;2023-06-14T03:15:06;16.40;99.90
11894;DHT22;6006;49.696;8.662;2023-06-14T03:17:33;16.30;99.90
11894;DHT22;6006;49.696;8.662;2023-06-14T03:20:01;16.30;99.90
11894;DHT22;6006;49.696;8.662;2023-06-14T03:22:29;16.30;99.90
11894;DHT22;6006;49.696;8.662;2023-06-14T03:24:57;16.30;99.90
11894;DHT22;6006;49.696;8.662;2023-06-14T03:27:25;16.20;99.90
11894;DHT22;6006;49.696;8.662;2023-06-14T03:29:54;16.30;99.90
11894;DHT22;6006;49.696;8.662;2023-06-14T03:32:21;16.20;99.90
11894;DHT22;6006;49.696;8.662;2023-06-14T03:34:48;16.20;99.90
11894;DHT22;6006;49.696;8.662;2023-06-14T03:37:14;16.10;99.90
11894;DHT22;6006;49.696;8.662;2023-06-14T03:39:42;16.10;99.90
11894;DHT22;6006;49.696;8.662;2023-06-14T03:42:13;16.00;99.90
11894;DHT22;6006;49.696;8.662;2023-06-14T03:44:40;15.90;99.90
11894;DHT22;6006;49.696;8.662;2023-06-14T03:47:07;15.80;99.90
11894;DHT22;6006;49.696;8.662;2023-06-14T03:49:35;15.70;99.90
11894;DHT22;6006;49.696;8.662;2023-06-14T03:52:03;15.70;99.90
11894;DHT22;6006;49.696;8.662;2023-06-14T03:54:30;15.60;99.90
11894;DHT22;6006;49.696;8.662;2023-06-14T03:56:58;15.60;99.90
11894;DHT22;6006;49.696;8.662;2023-06-14T03:59:27;15.60;99.90
11894;DHT22;6006;49.696;8.662;2023-06-14T04:01:54;15.60;99.90
11894;DHT22;6006;49.696;8.662;2023-06-14T04:04:21;15.60;99.90
11894;DHT22;6006;49.696;8.662;2023-06-14T04:06:54;15.60;99.90
11894;DHT22;6006;49.696;8.662;2023-06-14T04:09:22;15.60;99.90
11894;DHT22;6006;49.696;8.662;2023-06-14T04:11:50;15.60;99.90
11894;DHT22;6006;49.696;8.662;2023-06-14T04:14:18;15.60;99.90
11894;DHT22;6006;49.696;8.662;2023-06-14T04:16:47;15.60;99.90
11894;DHT22;6006;49.696;8.662;2023-06-14T04:19:15;15.60;99.90
11894;DHT22;6006;49.696;8.662;2023-06-14T04:21:41;15.60;99.90
11894;DHT22;6006;49.696;8.662;2023-06-14T04:24:08;15.60;99.90
11894;DHT22;6006;49.696;8.662;2023-06-14T04:26:38;15.50;99.90
11894;DHT22;6006;49.696;8.662;2023-06-14T04:29:05;15.50;99.90
11894;DHT22;6006;49.696;8.662;2023-06-14T04:31:32;15.60;99.90
11894;DHT22;6006;49.696;8.662;2023-06-14T04:34:04;15.60;99.90
11894;DHT22;6006;49.696;8.662;2023-06-14T04:36:32;15.60;99.90
11894;DHT22;6006;49.696;8.662;2023-06-14T04:39:00;15.70;99.90
11894;DHT22;6006;49.696;8.662;2023-06-14T04:41:29;15.70;99.90
11894;DHT22;6006;49.696;8.662;2023-06-14T04:43:57;15.70;99.90
11894;DHT22;6006;49.696;8.662;2023-06-14T04:46:27;15.70;99.90
11894;DHT22;6006;49.696;8.662;2023-06-14T04:48:54;15.70;99.90
11894;DHT22;6006;49.696;8.662;2023-06-14T04:51:23;15.70;99.90
11894;DHT22;6006;49.696;8.662;2023-06-14T04:53:55;15.80;99.90
11894;DHT22;6006;49.696;8.662;2023-06-14T04:56:23;15.80;99.90
11894;DHT22;6006;49.696;8.662;2023-06-14T04:58:51;15.80;99.90
11894;DHT22;6006;49.696;8.662;2023-06-14T05:01:19;15.90;99.90
11894;DHT22;6006;49.696;8.662;2023-06-14T05:03:46;15.90;99.90
11894;DHT22;6006;49.696;8.662;2023-06-14T05:06:14;15.90;99.90
11894;DHT22;6006;49.696;8.662;2023-06-14T05:08:44;16.00;99.90
11894;DHT22;6006;49.696;8.662;2023-06-14T05:11:11;16.10;99.90
11894;DHT22;6006;49.696;8.662;2023-06-14T05:13:38;16.20;99.90
11894;DHT22;6006;49.696;8.662;2023-06-14T05:16:05;16.20;99.90
11894;DHT22;6006;49.696;8.662;2023-06-14T05:18:32;16.30;99.90
11894;DHT22;6006;49.696;8.662;2023-06-14T05:21:00;16.40;99.90
11894;DHT22;6006;49.696;8.662;2023-06-14T05:23:27;16.50;99.90
11894;DHT22;6006;49.696;8.662;2023-06-14T05:25:56;16.60;99.90
11894;DHT22;6006;49.696;8.662;2023-06-14T05:28:23;16.60;99.90
11894;DHT22;6006;49.696;8.662;2023-06-14T05:30:50;16.70;99.90
11894;DHT22;6006;49.696;8.662;2023-06-14T05:33:17;16.80;99.90
11894;DHT22;6006;49.696;8.662;2023-06-14T05:35:44;16.90;99.90
11894;DHT22;6006;49.696;8.662;2023-06-14T05:38:12;16.90;99.90
11894;DHT22;6006;49.696;8.662;2023-06-14T05:40:39;17.10;99.90
11894;DHT22;6006;49.696;8.662;2023-06-14T05:43:07;17.20;99.90
11894;DHT22;6006;49.696;8.662;2023-06-14T05:45:34;17.30;99.90
11894;DHT22;6006;49.696;8.662;2023-06-14T05:48:01;17.50;99.90
11894;DHT22;6006;49.696;8.662;2023-06-14T05:50:28;17.60;99.90
11894;DHT22;6006;49.696;8.662;2023-06-14T05:52:55;17.80;99.90
11894;DHT22;6006;49.696;8.662;2023-06-14T05:55:22;17.90;99.90
11894;DHT22;6006;49.696;8.662;2023-06-14T05:57:48;18.00;99.90
11894;DHT22;6006;49.696;8.662;2023-06-14T06:00:18;18.20;99.90
11894;DHT22;6006;49.696;8.662;2023-06-14T06:02:45;18.40;99.90
11894;DHT22;6006;49.696;8.662;2023-06-14T06:05:13;18.60;99.90
11894;DHT22;6006;49.696;8.662;2023-06-14T06:07:40;18.70;99.90
11894;DHT22;6006;49.696;8.662;2023-06-14T06:10:09;18.80;99.90
11894;DHT22;6006;49.696;8.662;2023-06-14T06:12:36;19.00;99.90
11894;DHT22;6006;49.696;8.662;2023-06-14T06:15:04;19.10;99.90
11894;DHT22;6006;49.696;8.662;2023-06-14T06:17:33;19.20;99.90
11894;DHT22;6006;49.696;8.662;2023-06-14T06:20:00;19.30;99.90
11894;DHT22;6006;49.696;8.662;2023-06-14T06:22:27;19.50;99.90
11894;DHT22;6006;49.696;8.662;2023-06-14T06:24:54;19.50;99.90
11894;DHT22;6006;49.696;8.662;2023-06-14T06:27:21;19.60;99.90
11894;DHT22;6006;49.696;8.662;2023-06-14T06:29:48;19.70;99.90
11894;DHT22;6006;49.696;8.662;2023-06-14T06:32:15;19.80;99.90
11894;DHT22;6006;49.696;8.662;2023-06-14T06:34:43;20.10;99.90
11894;DHT22;6006;49.696;8.662;2023-06-14T06:37:10;20.10;99.90
11894;DHT22;6006;49.696;8.662;2023-06-14T06:39:37;20.10;99.90
11894;DHT22;6006;49.696;8.662;2023-06-14T06:42:04;20.20;99.90
11894;DHT22;6006;49.696;8.662;2023-06-14T06:44:32;20.20;99.90
11894;DHT22;6006;49.696;8.662;2023-06-14T06:46:59;20.30;99.90
11894;DHT22;6006;49.696;8.662;2023-06-14T06:49:25;20.40;99.90
11894;DHT22;6006;49.696;8.662;2023-06-14T06:52:01;20.60;99.90
11894;DHT22;6006;49.696;8.662;2023-06-14T06:54:29;21.00;99.90
11894;DHT22;6006;49.696;8.662;2023-06-14T06:56:56;21.30;99.90
11894;DHT22;6006;49.696;8.662;2023-06-14T06:59:23;21.30;99.90
11894;DHT22;6006;49.696;8.662;2023-06-14T07:01:50;21.30;99.90
11894;DHT22;6006;49.696;8.662;2023-06-14T07:04:17;21.30;99.90
11894;DHT22;6006;49.696;8.662;2023-06-14T07:06:46;21.40;99.90
11894;DHT22;6006;49.696;8.662;2023-06-14T07:09:15;21.50;99.90
11894;DHT22;6006;49.696;8.662;2023-06-14T07:11:43;21.70;99.90
11894;DHT22;6006;49.696;8.662;2023-06-14T07:14:10;22.10;99.90
11894;DHT22;6006;49.696;8.662;2023-06-14T07:16:38;22.30;99.90
11894;DHT22;6006;49.696;8.662;2023-06-14T07:19:05;22.30;99.90
11894;DHT22;6006;49.696;8.662;2023-06-14T07:21:32;21.80;99.90
11894;DHT22;6006;49.696;8.662;2023-06-14T07:23:59;22.20;99.90
11894;DHT22;6006;49.696;8.662;2023-06-14T07:26:27;22.10;99.90
11894;DHT22;6006;49.696;8.662;2023-06-14T07:28:54;22.30;99.90
11894;DHT22;6006;49.696;8.662;2023-06-14T07:31:21;22.70;99.90
11894;DHT22;6006;49.696;8.662;2023-06-14T07:33:47;22.70;99.90
11894;DHT22;6006;49.696;8.662;2023-06-14T07:36:14;22.80;99.90
11894;DHT22;6006;49.696;8.662;2023-06-14T07:38:43;22.90;99.90
11894;DHT22;6006;49.696;8.662;2023-06-14T07:41:10;22.80;99.90
11894;DHT22;6006;49.696;8.662;2023-06-14T07:43:38;23.10;99.90
11894;DHT22;6006;49.696;8.662;2023-06-14T07:46:05;23.00;99.90
11894;DHT22;6006;49.696;8.662;2023-06-14T07:48:33;22.80;99.90
11894;DHT22;6006;49.696;8.662;2023-06-14T07:51:01;23.00;99.90
11894;DHT22;6006;49.696;8.662;2023-06-14T07:53:28;22.90;99.90
11894;DHT22;6006;49.696;8.662;2023-06-14T07:55:56;23.10;99.90
11894;DHT22;6006;49.696;8.662;2023-06-14T07:58:23;23.20;99.90
11894;DHT22;6006;49.696;8.662;2023-06-14T08:00:51;23.30;99.90
11894;DHT22;6006;49.696;8.662;2023-06-14T08:03:18;23.20;99.90
11894;DHT22;6006;49.696;8.662;2023-06-14T08:05:45;23.60;99.90
11894;DHT22;6006;49.696;8.662;2023-06-14T08:08:12;23.60;99.90
11894;DHT22;6006;49.696;8.662;2023-06-14T08:10:39;23.60;99.90
11894;DHT22;6006;49.696;8.662;2023-06-14T08:13:06;23.90;99.90
11894;DHT22;6006;49.696;8.662;2023-06-14T08:15:34;24.30;99.90
11894;DHT22;6006;49.696;8.662;2023-06-14T08:18:03;24.50;99.90
11894;DHT22;6006;49.696;8.662;2023-06-14T08:20:30;24.60;99.90
11894;DHT22;6006;49.696;8.662;2023-06-14T08:22:57;24.20;99.90
11894;DHT22;6006;49.696;8.662;2023-06-14T08:25:24;24.30;99.90
11894;DHT22;6006;49.696;8.662;2023-06-14T08:27:52;24.10;99.90
11894;DHT22;6006;49.696;8.662;2023-06-14T08:30:18;23.80;99.90
11894;DHT22;6006;49.696;8.662;2023-06-14T08:32:45;23.90;99.90
11894;DHT22;6006;49.696;8.662;2023-06-14T08:35:14;23.60;99.90
11894;DHT22;6006;49.696;8.662;2023-06-14T08:37:41;23.90;99.90
11894;DHT22;6006;49.696;8.662;2023-06-14T08:40:21;24.60;99.90
11894;DHT22;6006;49.696;8.662;2023-06-14T08:42:50;25.20;99.90
11894;DHT22;6006;49.696;8.662;2023-06-14T08:45:18;24.80;99.90
11894;DHT22;6006;49.696;8.662;2023-06-14T08:47:45;25.00;99.90
11894;DHT22;6006;49.696;8.662;2023-06-14T08:50:19;25.30;99.90
11894;DHT22;6006;49.696;8.662;2023-06-14T08:52:48;25.60;99.90
11894;DHT22;6006;49.696;8.662;2023-06-14T08:55:16;25.00;99.90
11894;DHT22;6006;49.696;8.662;2023-06-14T08:57:46;25.30;99.90
11894;DHT22;6006;49.696;8.662;2023-06-14T09:00:14;25.40;99.90
11894;DHT22;6006;49.696;8.662;2023-06-14T09:02:41;25.30;99.90
11894;DHT22;6006;49.696;8.662;2023-06-14T09:05:09;25.30;99.90
11894;DHT22;6006;49.696;8.662;2023-06-14T09:07:38;25.50;99.90
11894;DHT22;6006;49.696;8.662;2023-06-14T09:10:08;25.30;99.90
11894;DHT22;6006;49.696;8.662;2023-06-14T09:12:35;25.40;99.90
11894;DHT22;6006;49.696;8.662;2023-06-14T09:15:03;26.00;99.90
11894;DHT22;6006;49.696;8.662;2023-06-14T09:17:34;25.90;99.30
11894;DHT22;6006;49.696;8.662;2023-06-14T09:20:02;25.40;98.70
11894;DHT22;6006;49.696;8.662;2023-06-14T09:22:32;25.10;99.60
11894;DHT22;6006;49.696;8.662;2023-06-14T09:25:01;24.90;99.60
11894;DHT22;6006;49.696;8.662;2023-06-14T09:27:28;25.00;99.40
11894;DHT22;6006;49.696;8.662;2023-06-14T09:29:55;25.00;98.90
11894;DHT22;6006;49.696;8.662;2023-06-14T09:32:22;25.40;99.90
11894;DHT22;6006;49.696;8.662;2023-06-14T09:34:49;26.60;99.50
11894;DHT22;6006;49.696;8.662;2023-06-14T09:37:27;27.40;95.90
11894;DHT22;6006;49.696;8.662;2023-06-14T09:39:55;27.60;94.70
11894;DHT22;6006;49.696;8.662;2023-06-14T09:42:23;26.90;96.50
11894;DHT22;6006;49.696;8.662;2023-06-14T09:44:52;26.90;99.90
11894;DHT22;6006;49.696;8.662;2023-06-14T09:47:21;26.90;96.00
11894;DHT22;6006;49.696;8.662;2023-06-14T09:49:48;27.50;95.50
11894;DHT22;6006;49.696;8.662;2023-06-14T09:52:18;27.10;92.50
11894;DHT22;6006;49.696;8.662;2023-06-14T09:54:46;26.20;94.40
11894;DHT22;6006;49.696;8.662;2023-06-14T09:57:14;25.80;95.80
11894;DHT22;6006;49.696;8.662;2023-06-14T09:59:44;25.90;97.10
11894;DHT22;6006;49.696;8.662;2023-06-14T10:02:18;25.60;95.20
11894;DHT22;6006;49.696;8.662;2023-06-14T10:04:50;25.40;97.70
11894;DHT22;6006;49.696;8.662;2023-06-14T10:07:19;25.50;98.10
11894;DHT22;6006;49.696;8.662;2023-06-14T10:09:47;26.30;97.20
11894;DHT22;6006;49.696;8.662;2023-06-14T10:12:16;27.00;96.80
11894;DHT22;6006;49.696;8.662;2023-06-14T10:14:49;26.80;94.90
11894;DHT22;6006;49.696;8.662;2023-06-14T10:17:24;26.60;95.10
11894;DHT22;6006;49.696;8.662;2023-06-14T10:20:06;27.30;96.80
11894;DHT22;6006;49.696;8.662;2023-06-14T10:22:42;27.40;94.90
11894;DHT22;6006;49.696;8.662;2023-06-14T10:25:13;26.40;94.60
11894;DHT22;6006;49.696;8.662;2023-06-14T10:27:44;26.40;96.10
11894;DHT22;6006;49.696;8.662;2023-06-14T10:30:15;26.50;94.40
11894;DHT22;6006;49.696;8.662;2023-06-14T10:33:03;26.30;96.10
11894;DHT22;6006;49.696;8.662;2023-06-14T10:35:30;26.10;96.30
11894;DHT22;6006;49.696;8.662;2023-06-14T10:38:06;26.60;96.90
11894;DHT22;6006;49.696;8.662;2023-06-14T10:40:34;27.10;96.60
11894;DHT22;6006;49.696;8.662;2023-06-14T10:43:01;27.40;94.90
11894;DHT22;6006;49.696;8.662;2023-06-14T10:46:16;27.50;94.90
11894;DHT22;6006;49.696;8.662;2023-06-14T10:48:43;27.00;95.00
11894;DHT22;6006;49.696;8.662;2023-06-14T10:51:17;26.10;97.00
11894;DHT22;6006;49.696;8.662;2023-06-14T10:53:48;25.90;96.00
11894;DHT22;6006;49.696;8.662;2023-06-14T10:56:27;25.50;96.90
11894;DHT22;6006;49.696;8.662;2023-06-14T10:58:56;25.30;98.30
11894;DHT22;6006;49.696;8.662;2023-06-14T11:01:35;26.10;97.40
11894;DHT22;6006;49.696;8.662;2023-06-14T11:04:09;26.40;96.90
11894;DHT22;6006;49.696;8.662;2023-06-14T11:06:47;27.10;97.60
11894;DHT22;6006;49.696;8.662;2023-06-14T11:09:35;27.40;95.50
11894;DHT22;6006;49.696;8.662;2023-06-14T11:12:09;28.20;94.10
11894;DHT22;6006;49.696;8.662;2023-06-14T11:14:38;28.70;93.00
11894;DHT22;6006;49.696;8.662;2023-06-14T11:17:06;28.50;93.50
11894;DHT22;6006;49.696;8.662;2023-06-14T11:19:33;27.10;93.20
11894;DHT22;6006;49.696;8.662;2023-06-14T11:22:00;25.90;94.10
11894;DHT22;6006;49.696;8.662;2023-06-14T11:24:27;25.00;96.20
11894;DHT22;6006;49.696;8.662;2023-06-14T11:26:55;24.80;97.60
11894;DHT22;6006;49.696;8.662;2023-06-14T11:29:23;24.10;97.00
11894;DHT22;6006;49.696;8.662;2023-06-14T11:31:50;23.90;99.90
11894;DHT22;6006;49.696;8.662;2023-06-14T11:34:19;23.90;98.80
11894;DHT22;6006;49.696;8.662;2023-06-14T11:36:46;24.30;97.30
11894;DHT22;6006;49.696;8.662;2023-06-14T11:39:13;24.60;97.60
11894;DHT22;6006;49.696;8.662;2023-06-14T11:41:41;25.50;97.20
11894;DHT22;6006;49.696;8.662;2023-06-14T11:44:09;25.10;98.30
11894;DHT22;6006;49.696;8.662;2023-06-14T11:46:36;26.40;97.10
11894;DHT22;6006;49.696;8.662;2023-06-14T11:49:03;27.20;94.90
11894;DHT22;6006;49.696;8.662;2023-06-14T11:51:34;26.70;93.60
11894;DHT22;6006;49.696;8.662;2023-06-14T11:54:01;26.00;94.70
11894;DHT22;6006;49.696;8.662;2023-06-14T11:56:29;25.40;94.50
11894;DHT22;6006;49.696;8.662;2023-06-14T11:58:57;25.10;96.40
11894;DHT22;6006;49.696;8.662;2023-06-14T12:01:24;25.20;98.00
11894;DHT22;6006;49.696;8.662;2023-06-14T12:03:52;25.30;96.10
11894;DHT22;6006;49.696;8.662;2023-06-14T12:06:26;25.10;97.40
11894;DHT22;6006;49.696;8.662;2023-06-14T12:08:59;24.90;97.50
11894;DHT22;6006;49.696;8.662;2023-06-14T12:11:33;24.90;97.00
11894;DHT22;6006;49.696;8.662;2023-06-14T12:14:00;25.00;97.40
11894;DHT22;6006;49.696;8.662;2023-06-14T12:16:31;26.00;97.20
11894;DHT22;6006;49.696;8.662;2023-06-14T12:19:00;26.80;98.70
11894;DHT22;6006;49.696;8.662;2023-06-14T12:21:27;27.60;94.50
11894;DHT22;6006;49.696;8.662;2023-06-14T12:23:54;27.60;92.90
11894;DHT22;6006;49.696;8.662;2023-06-14T12:26:24;25.50;92.90
11894;DHT22;6006;49.696;8.662;2023-06-14T12:28:53;24.80;95.50
11894;DHT22;6006;49.696;8.662;2023-06-14T12:31:20;23.90;97.00
11894;DHT22;6006;49.696;8.662;2023-06-14T12:33:47;24.30;97.20
11894;DHT22;6006;49.696;8.662;2023-06-14T12:36:15;24.00;96.80
11894;DHT22;6006;49.696;8.662;2023-06-14T12:38:43;24.80;99.00
11894;DHT22;6006;49.696;8.662;2023-06-14T12:41:11;25.60;97.60
11894;DHT22;6006;49.696;8.662;2023-06-14T12:43:41;26.40;94.50
11894;DHT22;6006;49.696;8.662;2023-06-14T12:46:08;27.80;94.20
11894;DHT22;6006;49.696;8.662;2023-06-14T12:48:35;27.30;92.20
11894;DHT22;6006;49.696;8.662;2023-06-14T12:51:02;26.30;93.30
11894;DHT22;6006;49.696;8.662;2023-06-14T12:53:29;26.30;94.30
11894;DHT22;6006;49.696;8.662;2023-06-14T12:55:55;26.80;93.80
11894;DHT22;6006;49.696;8.662;2023-06-14T12:58:22;27.30;93.80
11894;DHT22;6006;49.696;8.662;2023-06-14T13:00:51;28.20;93.10
11894;DHT22;6006;49.696;8.662;2023-06-14T13:03:18;29.20;92.90
11894;DHT22;6006;49.696;8.662;2023-06-14T13:05:45;29.60;91.10
11894;DHT22;6006;49.696;8.662;2023-06-14T13:08:12;29.70;90.70
11894;DHT22;6006;49.696;8.662;2023-06-14T13:10:39;29.60;91.20
11894;DHT22;6006;49.696;8.662;2023-06-14T13:13:06;27.90;89.00
11894;DHT22;6006;49.696;8.662;2023-06-14T13:15:34;26.80;92.10
11894;DHT22;6006;49.696;8.662;2023-06-14T13:18:02;26.50;93.60
11894;DHT22;6006;49.696;8.662;2023-06-14T13:20:29;26.30;93.70
11894;DHT22;6006;49.696;8.662;2023-06-14T13:22:56;26.50;94.40
11894;DHT22;6006;49.696;8.662;2023-06-14T13:25:23;26.80;92.60
11894;DHT22;6006;49.696;8.662;2023-06-14T13:27:50;26.80;94.60
11894;DHT22;6006;49.696;8.662;2023-06-14T13:30:17;27.70;95.30
11894;DHT22;6006;49.696;8.662;2023-06-14T13:32:44;28.60;93.10
11894;DHT22;6006;49.696;8.662;2023-06-14T13:35:12;28.90;91.70
11894;DHT22;6006;49.696;8.662;2023-06-14T13:37:39;29.00;92.30
11894;DHT22;6006;49.696;8.662;2023-06-14T13:40:07;29.10;91.60
11894;DHT22;6006;49.696;8.662;2023-06-14T13:42:34;26.90;91.30
11894;DHT22;6006;49.696;8.662;2023-06-14T13:45:01;27.90;93.00
11894;DHT22;6006;49.696;8.662;2023-06-14T13:47:28;27.20;91.60
11894;DHT22;6006;49.696;8.662;2023-06-14T13:49:55;26.90;92.20
11894;DHT22;6006;49.696;8.662;2023-06-14T13:52:24;26.00;92.70
11894;DHT22;6006;49.696;8.662;2023-06-14T13:54:51;25.30;96.40
11894;DHT22;6006;49.696;8.662;2023-06-14T13:57:18;25.70;93.30
11894;DHT22;6006;49.696;8.662;2023-06-14T13:59:45;25.80;94.00
11894;DHT22;6006;49.696;8.662;2023-06-14T14:02:12;25.90;95.00
11894;DHT22;6006;49.696;8.662;2023-06-14T14:04:39;25.90;93.60
11894;DHT22;6006;49.696;8.662;2023-06-14T14:07:07;25.50;94.90
11894;DHT22;6006;49.696;8.662;2023-06-14T14:09:35;26.00;95.90
11894;DHT22;6006;49.696;8.662;2023-06-14T14:12:03;26.60;93.70
11894;DHT22;6006;49.696;8.662;2023-06-14T14:14:31;27.20;93.40
11894;DHT22;6006;49.696;8.662;2023-06-14T14:16:59;27.00;93.50
11894;DHT22;6006;49.696;8.662;2023-06-14T14:19:25;27.60;93.80
11894;DHT22;6006;49.696;8.662;2023-06-14T14:21:52;28.30;92.90
11894;DHT22;6006;49.696;8.662;2023-06-14T14:24:20;28.70;91.50
11894;DHT22;6006;49.696;8.662;2023-06-14T14:26:48;28.90;99.00
11894;DHT22;6006;49.696;8.662;2023-06-14T14:29:15;29.00;92.30
11894;DHT22;6006;49.696;8.662;2023-06-14T14:31:42;27.20;91.50
11894;DHT22;6006;49.696;8.662;2023-06-14T14:34:09;27.90;92.70
11894;DHT22;6006;49.696;8.662;2023-06-14T14:36:36;28.30;90.60
11894;DHT22;6006;49.696;8.662;2023-06-14T14:39:06;26.90;90.50
11894;DHT22;6006;49.696;8.662;2023-06-14T14:41:33;26.00;92.70
11894;DHT22;6006;49.696;8.662;2023-06-14T14:44:02;25.40;94.80
11894;DHT22;6006;49.696;8.662;2023-06-14T14:46:28;25.90;94.50
11894;DHT22;6006;49.696;8.662;2023-06-14T14:48:55;26.20;94.90
11894;DHT22;6006;49.696;8.662;2023-06-14T14:51:22;26.80;93.70
11894;DHT22;6006;49.696;8.662;2023-06-14T14:53:49;26.60;92.60
11894;DHT22;6006;49.696;8.662;2023-06-14T14:56:16;26.70;93.50
11894;DHT22;6006;49.696;8.662;2023-06-14T14:58:43;27.10;92.80
11894;DHT22;6006;49.696;8.662;2023-06-14T15:01:12;26.90;92.10
11894;DHT22;6006;49.696;8.662;2023-06-14T15:03:38;27.40;93.90
11894;DHT22;6006;49.696;8.662;2023-06-14T15:06:05;27.10;90.70
11894;DHT22;6006;49.696;8.662;2023-06-14T15:08:32;27.00;92.00
11894;DHT22;6006;49.696;8.662;2023-06-14T15:10:59;27.00;93.20
11894;DHT22;6006;49.696;8.662;2023-06-14T15:13:27;27.40;91.90
11894;DHT22;6006;49.696;8.662;2023-06-14T15:15:54;27.40;92.40
11894;DHT22;6006;49.696;8.662;2023-06-14T15:18:22;27.90;92.20
11894;DHT22;6006;49.696;8.662;2023-06-14T15:20:50;28.60;90.20
11894;DHT22;6006;49.696;8.662;2023-06-14T15:23:16;28.70;90.30
11894;DHT22;6006;49.696;8.662;2023-06-14T15:25:45;29.20;90.30
11894;DHT22;6006;49.696;8.662;2023-06-14T15:28:13;28.60;90.10
11894;DHT22;6006;49.696;8.662;2023-06-14T15:30:40;28.30;90.70
11894;DHT22;6006;49.696;8.662;2023-06-14T15:33:07;28.70;90.80
11894;DHT22;6006;49.696;8.662;2023-06-14T15:35:35;28.90;90.90
11894;DHT22;6006;49.696;8.662;2023-06-14T15:38:02;28.40;91.00
11894;DHT22;6006;49.696;8.662;2023-06-14T15:40:29;28.20;90.90
11894;DHT22;6006;49.696;8.662;2023-06-14T15:42:56;27.60;91.10
11894;DHT22;6006;49.696;8.662;2023-06-14T15:45:23;27.80;91.50
11894;DHT22;6006;49.696;8.662;2023-06-14T15:47:50;27.10;90.40
11894;DHT22;6006;49.696;8.662;2023-06-14T15:50:17;26.10;90.70